createdAt,value
2023-05-08T00:00:14.667Z,9.70
2023-05-08T00:02:43.392Z,8.82
2023-05-08T00:05:11.241Z,9.88
2023-05-08T00:07:38.908Z,7.60
2023-05-08T00:10:07.985Z,8.77
2023-05-08T00:12:35.798Z,8.40
2023-05-08T00:15:06.396Z,7.75
2023-05-08T00:17:34.318Z,7.63
2023-05-08T00:20:02.877Z,7.20
2023-05-08T00:22:30.580Z,7.37
2023-05-08T00:24:58.305Z,6.60
2023-05-08T00:27:26.087Z,6.97
2023-05-08T00:29:53.836Z,6.35
2023-05-08T00:32:23.244Z,6.80
2023-05-08T00:34:51.324Z,6.87
2023-05-08T00:37:19.038Z,7.20
2023-05-08T00:39:46.813Z,6.40
2023-05-08T00:42:14.564Z,6.32
2023-05-08T00:44:42.483Z,7.22
2023-05-08T00:47:10.355Z,7.23
2023-05-08T00:49:39.918Z,7.00
2023-05-08T00:52:08.928Z,6.95
2023-05-08T00:54:37.282Z,6.68
2023-05-08T00:57:07.455Z,7.00
2023-05-08T00:59:37.135Z,6.57
2023-05-08T01:02:05.057Z,6.93
2023-05-08T01:04:33.672Z,6.95
2023-05-08T01:07:03.605Z,6.88
2023-05-08T01:09:31.571Z,6.55
2023-05-08T01:12:08.881Z,6.83
2023-05-08T01:15:02.236Z,5.82
2023-05-08T01:17:39.439Z,6.00
2023-05-08T01:20:19.964Z,6.32
2023-05-08T01:23:27.778Z,6.88
2023-05-08T01:26:16.362Z,6.60
2023-05-08T01:29:25.436Z,6.65
2023-05-08T01:32:13.024Z,7.70
2023-05-08T01:34:47.522Z,7.93
2023-05-08T01:37:21.169Z,7.45
2023-05-08T01:39:58.029Z,7.50
2023-05-08T01:42:32.154Z,6.90
2023-05-08T01:45:03.843Z,6.20
2023-05-08T01:47:37.281Z,6.38
2023-05-08T01:50:15.203Z,6.63
2023-05-08T01:52:46.332Z,6.80
2023-05-08T01:55:19.264Z,6.57
2023-05-08T01:57:50.146Z,6.20
2023-05-08T02:00:21.969Z,6.38
2023-05-08T02:02:53.451Z,6.78
2023-05-08T02:05:23.578Z,7.33
2023-05-08T02:07:53.287Z,7.07
2023-05-08T02:10:22.161Z,6.55
2023-05-08T02:12:51.281Z,6.28
2023-05-08T02:15:21.082Z,6.30
2023-05-08T02:17:55.151Z,6.80
2023-05-08T02:20:23.528Z,7.35
2023-05-08T02:22:52.673Z,6.97
2023-05-08T02:25:20.999Z,6.93
2023-05-08T02:27:50.555Z,7.15
2023-05-08T02:30:18.944Z,7.23
2023-05-08T02:32:48.696Z,8.07
2023-05-08T02:35:19.533Z,8.55
2023-05-08T02:37:52.522Z,8.98
2023-05-08T02:40:22.639Z,9.20
2023-05-08T02:42:51.232Z,8.70
2023-05-08T02:45:19.743Z,9.95
2023-05-08T02:47:53.854Z,8.60
2023-05-08T02:50:32.681Z,10.38
2023-05-08T02:53:05.125Z,10.50
2023-05-08T02:55:40.237Z,9.77
2023-05-08T02:58:18.749Z,11.50
2023-05-08T03:00:50.694Z,10.45
2023-05-08T03:03:23.866Z,10.43
2023-05-08T03:05:57.489Z,8.95
2023-05-08T03:08:30.731Z,9.93
2023-05-08T03:11:02.313Z,9.02
2023-05-08T03:13:33.296Z,10.57
2023-05-08T03:16:02.322Z,11.35
2023-05-08T03:18:33.700Z,9.82
2023-05-08T03:21:03.557Z,10.13
2023-05-08T03:23:34.992Z,9.25
2023-05-08T03:26:04.381Z,9.07
2023-05-08T03:28:33.707Z,8.23
2023-05-08T03:31:02.824Z,8.80
2023-05-08T03:33:31.517Z,9.47
2023-05-08T03:36:02.068Z,9.57
2023-05-08T03:38:30.270Z,8.90
2023-05-08T03:40:59.724Z,9.20
2023-05-08T03:43:29.087Z,9.20
2023-05-08T03:45:58.282Z,9.13
2023-05-08T03:48:27.034Z,9.82
2023-05-08T03:50:56.118Z,9.88
2023-05-08T03:53:25.826Z,10.68
2023-05-08T03:55:53.654Z,11.57
2023-05-08T03:58:27.454Z,11.63
2023-05-08T04:01:05.255Z,12.90
2023-05-08T04:03:44.564Z,12.13
2023-05-08T04:06:17.738Z,12.55
2023-05-08T04:08:54.766Z,12.32
2023-05-08T04:11:29.089Z,12.43
2023-05-08T04:14:03.031Z,12.60
2023-05-08T04:16:37.168Z,13.55
2023-05-08T04:19:11.878Z,13.52
2023-05-08T04:21:43.906Z,12.70
2023-05-08T04:24:15.809Z,11.67
2023-05-08T04:26:47.057Z,11.82
2023-05-08T04:29:17.570Z,11.90
2023-05-08T04:31:46.468Z,12.80
2023-05-08T04:34:15.113Z,11.70
2023-05-08T04:36:43.571Z,12.40
2023-05-08T04:39:12.670Z,10.93
2023-05-08T04:41:40.812Z,13.48
2023-05-08T04:44:08.629Z,14.02
2023-05-08T04:46:36.556Z,13.73
2023-05-08T04:49:04.817Z,14.20
2023-05-08T04:51:33.435Z,13.82
2023-05-08T04:54:02.264Z,14.75
2023-05-08T04:56:31.840Z,14.95
2023-05-08T04:59:00.864Z,14.63
2023-05-08T05:01:28.942Z,14.80
2023-05-08T05:03:56.851Z,13.90
2023-05-08T05:06:24.767Z,13.70
2023-05-08T05:08:52.698Z,12.25
2023-05-08T05:11:21.407Z,13.15
2023-05-08T05:13:50.724Z,12.93
2023-05-08T05:16:18.784Z,12.77
2023-05-08T05:18:47.127Z,13.20
2023-05-08T05:21:15.052Z,13.52
2023-05-08T05:23:43.004Z,12.23
2023-05-08T05:26:10.785Z,12.37
2023-05-08T05:28:39.176Z,12.38
2023-05-08T05:31:08.776Z,12.10
2023-05-08T05:33:36.873Z,12.15
2023-05-08T05:36:04.949Z,12.18
2023-05-08T05:38:32.754Z,11.83
2023-05-08T05:41:00.670Z,11.70
2023-05-08T05:43:28.865Z,9.90
2023-05-08T05:45:57.362Z,9.70
2023-05-08T05:48:26.714Z,9.77
2023-05-08T05:50:54.527Z,10.13
2023-05-08T05:53:22.657Z,10.23
2023-05-08T05:55:50.499Z,9.95
2023-05-08T05:58:18.753Z,10.32
2023-05-08T06:00:47.520Z,11.52
2023-05-08T06:03:15.695Z,10.73
2023-05-08T06:05:47.431Z,11.45
2023-05-08T06:08:16.455Z,10.63
2023-05-08T06:10:44.187Z,11.57
2023-05-08T06:13:12.815Z,12.48
2023-05-08T06:15:41.941Z,13.17
2023-05-08T06:18:09.927Z,12.15
2023-05-08T06:20:38.601Z,11.65
2023-05-08T06:23:08.487Z,12.60
2023-05-08T06:25:36.269Z,13.77
2023-05-08T06:28:06.510Z,12.73
2023-05-08T06:30:34.262Z,13.18
2023-05-08T06:33:02.164Z,14.25
2023-05-08T06:35:29.892Z,13.50
2023-05-08T06:37:57.557Z,13.55
2023-05-08T06:40:26.679Z,13.27
2023-05-08T06:42:54.393Z,13.40
2023-05-08T06:45:22.397Z,13.55
2023-05-08T06:47:50.183Z,13.70
2023-05-08T06:50:17.936Z,12.80
2023-05-08T06:52:45.790Z,13.97
2023-05-08T06:55:13.643Z,14.98
2023-05-08T06:57:42.934Z,15.48
2023-05-08T07:00:12.162Z,15.07
2023-05-08T07:02:40.002Z,14.93
2023-05-08T07:05:08.684Z,15.50
2023-05-08T07:07:36.452Z,16.42
2023-05-08T07:10:05.391Z,15.52
2023-05-08T07:12:34.285Z,15.27
2023-05-08T07:15:14.062Z,15.90
2023-05-08T07:17:51.588Z,17.60
2023-05-08T07:20:19.356Z,16.45
2023-05-08T07:22:47.432Z,17.48
2023-05-08T07:25:15.294Z,16.98
2023-05-08T07:27:43.612Z,17.58
2023-05-08T07:30:13.169Z,17.97
2023-05-08T07:32:41.265Z,17.10
2023-05-08T07:35:12.068Z,18.80
2023-05-08T07:37:40.347Z,18.08
2023-05-08T07:40:09.418Z,19.52
2023-05-08T07:42:42.040Z,17.67
2023-05-08T07:45:13.388Z,18.95
2023-05-08T07:47:50.568Z,18.48
2023-05-08T07:50:18.559Z,19.33
2023-05-08T07:52:47.933Z,19.15
2023-05-08T07:55:17.003Z,18.80
2023-05-08T07:57:45.403Z,19.02
2023-05-08T08:00:16.687Z,19.63
2023-05-08T08:02:45.464Z,20.13
2023-05-08T08:05:13.696Z,19.70
2023-05-08T08:07:41.669Z,18.03
2023-05-08T08:10:10.100Z,18.95
2023-05-08T08:12:38.099Z,18.40
2023-05-08T08:15:06.845Z,19.17
2023-05-08T08:17:36.505Z,18.55
2023-05-08T08:20:04.570Z,19.60
2023-05-08T08:22:32.366Z,20.25
2023-05-08T08:25:00.160Z,20.60
2023-05-08T08:27:28.169Z,18.80
2023-05-08T08:30:08.349Z,19.38
2023-05-08T08:32:44.688Z,19.77
2023-05-08T08:35:13.104Z,19.17
2023-05-08T08:37:41.382Z,19.75
2023-05-08T08:40:10.025Z,19.80
2023-05-08T08:42:37.853Z,19.40
2023-05-08T08:45:06.982Z,20.77
2023-05-08T08:47:37.634Z,19.30
2023-05-08T08:50:11.963Z,21.20
2023-05-08T08:52:47.514Z,22.17
2023-05-08T08:55:17.756Z,23.45
2023-05-08T08:57:53.717Z,24.63
2023-05-08T09:00:23.578Z,24.90
2023-05-08T09:02:51.719Z,25.85
2023-05-08T09:05:23.523Z,26.42
2023-05-08T09:07:52.245Z,27.42
2023-05-08T09:10:20.038Z,27.47
2023-05-08T09:12:49.227Z,26.67
2023-05-08T09:15:17.055Z,27.17
2023-05-08T09:17:45.132Z,28.95
2023-05-08T09:20:16.183Z,29.35
2023-05-08T09:22:45.472Z,27.60
2023-05-08T09:25:13.417Z,29.40
2023-05-08T09:27:41.528Z,30.50
2023-05-08T09:30:10.654Z,30.30
2023-05-08T09:32:40.051Z,30.98
2023-05-08T09:35:09.890Z,30.93
2023-05-08T09:37:40.167Z,30.30
2023-05-08T09:40:16.964Z,31.52
2023-05-08T09:42:45.090Z,31.70
2023-05-08T09:45:13.298Z,32.63
2023-05-08T09:47:49.414Z,31.03
2023-05-08T09:50:17.126Z,30.73
2023-05-08T09:52:47.870Z,33.38
2023-05-08T09:55:17.409Z,33.53
2023-05-08T09:57:54.238Z,34.55
2023-05-08T10:00:23.129Z,34.23
2023-05-08T10:02:59.201Z,35.63
2023-05-08T10:05:31.252Z,35.90
2023-05-08T10:08:00.710Z,37.05
2023-05-08T10:10:31.290Z,36.47
2023-05-08T10:12:59.966Z,37.07
2023-05-08T10:15:31.157Z,35.50
2023-05-08T10:18:05.462Z,35.10
2023-05-08T10:20:34.744Z,36.17
2023-05-08T10:23:03.954Z,36.03
2023-05-08T10:25:34.573Z,31.80
2023-05-08T10:28:11.070Z,35.08
2023-05-08T10:30:44.371Z,32.78
2023-05-08T10:33:15.460Z,33.33
2023-05-08T10:35:43.479Z,32.28
2023-05-08T10:38:12.254Z,30.03
2023-05-08T10:40:41.850Z,26.35
2023-05-08T10:43:10.622Z,20.50
2023-05-08T10:45:39.228Z,21.95
2023-05-08T10:48:17.323Z,21.40
2023-05-08T10:50:57.838Z,20.40
2023-05-08T10:53:34.633Z,23.60
2023-05-08T10:56:04.196Z,22.55
2023-05-08T10:58:33.482Z,22.25
2023-05-08T11:01:15.590Z,21.95
2023-05-08T11:03:50.534Z,21.60
2023-05-08T11:06:19.681Z,21.27
2023-05-08T11:08:49.636Z,20.77
2023-05-08T11:11:31.487Z,21.52
2023-05-08T11:14:13.366Z,19.70
2023-05-08T11:17:07.893Z,19.57
2023-05-08T11:19:36.825Z,19.98
2023-05-08T11:22:25.684Z,19.52
2023-05-08T11:24:56.207Z,19.65
2023-05-08T11:27:53.392Z,19.08
2023-05-08T11:30:24.006Z,18.93
2023-05-08T11:32:59.460Z,19.42
2023-05-08T11:36:01.750Z,19.25
2023-05-08T11:38:35.913Z,19.70
2023-05-08T11:41:09.310Z,18.80
2023-05-08T11:44:15.011Z,19.60
2023-05-08T11:46:51.004Z,17.92
2023-05-08T11:49:24.676Z,19.02
2023-05-08T11:51:59.524Z,19.85
2023-05-08T11:54:31.052Z,18.35
2023-05-08T11:56:59.602Z,18.50
2023-05-08T11:59:27.498Z,20.05
2023-05-08T12:02:07.637Z,19.63
2023-05-08T12:04:44.372Z,19.35
2023-05-08T12:07:12.287Z,18.52
2023-05-08T12:09:40.165Z,18.87
2023-05-08T12:12:08.020Z,19.67
2023-05-08T12:14:35.922Z,20.45
2023-05-08T12:17:05.085Z,17.42
2023-05-08T12:19:32.883Z,16.98
2023-05-08T12:22:01.529Z,15.50
2023-05-08T12:24:29.360Z,15.43
2023-05-08T12:26:57.115Z,15.23
2023-05-08T12:29:27.325Z,16.63
2023-05-08T12:31:55.452Z,17.40
2023-05-08T12:34:25.194Z,16.17
2023-05-08T12:37:03.284Z,16.85
2023-05-08T12:39:36.651Z,17.35
2023-05-08T12:42:04.616Z,16.92
2023-05-08T12:44:32.358Z,15.27
2023-05-08T12:47:00.288Z,15.70
2023-05-08T12:49:30.878Z,15.75
2023-05-08T12:52:03.328Z,15.90
2023-05-08T12:54:36.086Z,16.27
2023-05-08T12:57:09.815Z,15.85
2023-05-08T12:59:37.693Z,15.63
2023-05-08T13:02:05.581Z,16.00
2023-05-08T13:04:39.310Z,16.85
2023-05-08T13:07:07.606Z,17.10
2023-05-08T13:09:35.437Z,16.17
2023-05-08T13:12:03.469Z,14.90
2023-05-08T13:14:31.351Z,15.10
2023-05-08T13:16:59.779Z,15.18
2023-05-08T13:19:28.387Z,14.38
2023-05-08T13:21:57.547Z,15.60
2023-05-08T13:24:25.794Z,17.33
2023-05-08T13:26:53.588Z,17.15
2023-05-08T13:29:22.040Z,16.45
2023-05-08T13:31:49.807Z,16.00
2023-05-08T13:34:17.612Z,15.32
2023-05-08T13:36:45.410Z,16.37
2023-05-08T13:39:15.392Z,15.30
2023-05-08T13:41:44.434Z,15.13
2023-05-08T13:44:12.164Z,15.75
2023-05-08T13:46:40.003Z,16.83
2023-05-08T13:49:07.710Z,15.90
2023-05-08T13:51:35.621Z,16.02
2023-05-08T13:54:03.345Z,15.25
2023-05-08T13:56:32.389Z,14.38
2023-05-08T13:59:00.166Z,13.52
2023-05-08T14:01:28.502Z,15.90
2023-05-08T14:03:56.503Z,14.70
2023-05-08T14:06:24.333Z,13.40
2023-05-08T14:08:54.442Z,12.45
2023-05-08T14:11:24.018Z,13.13
2023-05-08T14:13:53.416Z,13.03
2023-05-08T14:16:21.614Z,12.98
2023-05-08T14:18:49.254Z,12.50
2023-05-08T14:21:16.968Z,12.98
2023-05-08T14:23:45.068Z,13.32
2023-05-08T14:26:12.956Z,12.27
2023-05-08T14:28:40.793Z,14.02
2023-05-08T14:31:10.048Z,12.40
2023-05-08T14:33:37.896Z,13.20
2023-05-08T14:36:05.955Z,12.75
2023-05-08T14:38:33.720Z,13.47
2023-05-08T14:41:04.265Z,13.20
2023-05-08T14:43:32.748Z,14.35
2023-05-08T14:46:00.722Z,14.77
2023-05-08T14:48:29.768Z,15.75
2023-05-08T14:50:57.581Z,15.77
2023-05-08T14:53:25.563Z,15.05
2023-05-08T14:55:53.590Z,15.45
2023-05-08T14:58:21.537Z,15.45
2023-05-08T15:00:49.156Z,15.27
2023-05-08T15:03:17.107Z,15.27
2023-05-08T15:05:47.205Z,15.18
2023-05-08T15:08:15.088Z,17.15
2023-05-08T15:10:43.348Z,16.38
2023-05-08T15:13:11.124Z,15.98
2023-05-08T15:15:39.022Z,17.00
2023-05-08T15:18:06.818Z,16.48
2023-05-08T15:20:34.655Z,15.75
2023-05-08T15:23:03.814Z,15.02
2023-05-08T15:25:31.510Z,15.25
2023-05-08T15:28:00.815Z,15.93
2023-05-08T15:30:28.948Z,15.52
2023-05-08T15:32:56.700Z,16.52
2023-05-08T15:35:24.499Z,15.65
2023-05-08T15:37:52.262Z,15.95
2023-05-08T15:40:21.470Z,16.10
2023-05-08T15:42:49.098Z,16.58
2023-05-08T15:45:16.944Z,14.60
2023-05-08T15:47:44.630Z,14.15
2023-05-08T15:50:12.568Z,14.15
2023-05-08T15:52:40.360Z,13.83
2023-05-08T15:55:08.443Z,13.15
2023-05-08T15:57:40.710Z,12.85
2023-05-08T16:00:09.834Z,12.35
2023-05-08T16:02:37.650Z,11.75
2023-05-08T16:05:05.759Z,10.93
2023-05-08T16:07:33.593Z,9.70
2023-05-08T16:10:01.281Z,10.30
2023-05-08T16:12:29.064Z,9.15
2023-05-08T16:14:58.321Z,8.27
2023-05-08T16:17:26.263Z,8.77
2023-05-08T16:19:53.998Z,7.80
2023-05-08T16:22:23.119Z,8.52
2023-05-08T16:24:53.859Z,9.30
2023-05-08T16:27:21.801Z,8.18
2023-05-08T16:29:49.605Z,9.30
2023-05-08T16:32:18.745Z,8.23
2023-05-08T16:34:46.529Z,7.65
2023-05-08T16:37:14.524Z,7.60
2023-05-08T16:39:42.303Z,8.55
2023-05-08T16:42:10.021Z,8.70
2023-05-08T16:44:38.190Z,9.52
2023-05-08T16:47:05.980Z,8.57
2023-05-08T16:49:35.302Z,8.55
2023-05-08T16:52:03.031Z,9.32
2023-05-08T16:54:30.809Z,8.50
2023-05-08T16:56:58.499Z,9.10
2023-05-08T16:59:26.218Z,9.18
2023-05-08T17:01:54.694Z,9.40
2023-05-08T17:04:22.378Z,9.35
2023-05-08T17:06:51.454Z,9.53
2023-05-08T17:09:19.125Z,9.43
2023-05-08T17:11:47.057Z,9.73
2023-05-08T17:14:14.797Z,9.93
2023-05-08T17:16:42.573Z,9.18
2023-05-08T17:19:10.404Z,10.57
2023-05-08T17:21:38.147Z,10.88
2023-05-08T17:24:08.047Z,11.10
2023-05-08T17:26:36.148Z,11.05
2023-05-08T17:29:03.937Z,11.75
2023-05-08T17:31:31.786Z,13.27
2023-05-08T17:33:59.864Z,12.55
2023-05-08T17:36:27.589Z,11.95
2023-05-08T17:38:55.340Z,12.57
2023-05-08T17:41:24.485Z,12.32
2023-05-08T17:43:53.351Z,13.03
2023-05-08T17:46:21.284Z,13.30
2023-05-08T17:48:49.149Z,12.50
2023-05-08T17:51:16.897Z,13.10
2023-05-08T17:53:44.714Z,12.20
2023-05-08T17:56:12.564Z,13.77
2023-05-08T17:58:41.721Z,12.48
2023-05-08T18:01:09.444Z,12.52
2023-05-08T18:03:37.244Z,12.90
2023-05-08T18:06:05.085Z,13.45
2023-05-08T18:08:34.297Z,12.87
2023-05-08T18:11:02.016Z,13.32
2023-05-08T18:13:30.532Z,13.70
2023-05-08T18:16:00.053Z,13.20
2023-05-08T18:18:27.926Z,14.50
2023-05-08T18:20:55.657Z,13.40
2023-05-08T18:23:23.332Z,14.20
2023-05-08T18:25:51.457Z,14.20
2023-05-08T18:28:19.181Z,12.27
2023-05-08T18:30:46.877Z,13.50
2023-05-08T18:33:16.050Z,13.27
2023-05-08T18:35:43.803Z,14.90
2023-05-08T18:38:11.511Z,13.98
2023-05-08T18:40:39.397Z,12.75
2023-05-08T18:43:07.088Z,13.63
2023-05-08T18:45:34.847Z,14.37
2023-05-08T18:48:02.748Z,12.65
2023-05-08T18:50:31.864Z,12.55
2023-05-08T18:52:59.668Z,12.35
2023-05-08T18:55:27.960Z,12.43
2023-05-08T18:57:55.775Z,12.20
2023-05-08T19:00:23.582Z,12.00
2023-05-08T19:02:51.462Z,11.88
2023-05-08T19:05:19.519Z,12.38
2023-05-08T19:07:48.677Z,11.95
2023-05-08T19:10:16.692Z,11.40
2023-05-08T19:12:45.481Z,10.55
2023-05-08T19:15:14.560Z,10.57
2023-05-08T19:17:42.595Z,10.02
2023-05-08T19:20:11.575Z,9.93
2023-05-08T19:22:39.650Z,8.33
2023-05-08T19:25:09.784Z,8.38
2023-05-08T19:27:37.498Z,8.20
2023-05-08T19:30:06.606Z,7.30
2023-05-08T19:32:34.445Z,6.80
2023-05-08T19:35:02.693Z,5.67
2023-05-08T19:37:30.478Z,5.38
2023-05-08T19:39:58.244Z,5.00
2023-05-08T19:42:27.411Z,4.88
2023-05-08T19:44:55.109Z,4.85
2023-05-08T19:47:22.873Z,3.63
2023-05-08T19:49:51.061Z,4.78
2023-05-08T19:52:19.750Z,3.80
2023-05-08T19:54:47.523Z,3.95
2023-05-08T19:57:15.314Z,3.88
2023-05-08T19:59:44.410Z,4.13
2023-05-08T20:02:12.147Z,4.22
2023-05-08T20:04:54.407Z,4.55
2023-05-08T20:07:27.695Z,4.70
2023-05-08T20:09:55.504Z,4.75
2023-05-08T20:12:23.267Z,4.70
2023-05-08T20:14:53.345Z,4.07
2023-05-08T20:17:21.316Z,5.88
2023-05-08T20:19:49.048Z,5.40
2023-05-08T20:22:16.905Z,5.05
2023-05-08T20:24:44.713Z,5.30
2023-05-08T20:27:12.513Z,4.63
2023-05-08T20:29:40.543Z,6.22
2023-05-08T20:32:14.387Z,5.10
2023-05-08T20:34:44.051Z,4.65
2023-05-08T20:37:11.953Z,5.70
2023-05-08T20:39:39.882Z,5.57
2023-05-08T20:42:07.570Z,5.97
2023-05-08T20:44:35.477Z,4.88
2023-05-08T20:47:03.175Z,4.88
2023-05-08T20:49:32.302Z,5.17
2023-05-08T20:52:00.152Z,5.00
2023-05-08T20:54:30.002Z,5.35
2023-05-08T20:56:57.827Z,4.30
2023-05-08T20:59:25.785Z,4.78
2023-05-08T21:01:53.573Z,4.30
2023-05-08T21:04:21.343Z,4.05
2023-05-08T21:06:52.032Z,4.00
2023-05-08T21:09:20.173Z,3.20
2023-05-08T21:11:47.959Z,3.58
2023-05-08T21:14:15.832Z,3.43
2023-05-08T21:16:43.591Z,3.03
2023-05-08T21:19:13.896Z,3.53
2023-05-08T21:21:42.063Z,3.50
2023-05-08T21:24:11.192Z,3.10
2023-05-08T21:26:38.946Z,3.50
2023-05-08T21:29:06.892Z,4.30
2023-05-08T21:31:36.091Z,4.00
2023-05-08T21:34:04.336Z,4.80
2023-05-08T21:36:34.031Z,4.93
2023-05-08T21:39:02.180Z,4.53
2023-05-08T21:41:32.905Z,5.05
2023-05-08T21:44:00.607Z,4.40
2023-05-08T21:46:28.386Z,4.20
2023-05-08T21:48:56.226Z,4.32
2023-05-08T21:51:24.067Z,3.90
2023-05-08T21:53:51.755Z,4.10
2023-05-08T21:56:19.458Z,4.30
2023-05-08T21:58:49.059Z,3.60
2023-05-08T22:01:16.811Z,3.67
2023-05-08T22:03:45.017Z,4.33
2023-05-08T22:06:13.032Z,4.72
2023-05-08T22:08:40.759Z,4.88
2023-05-08T22:11:08.644Z,4.97
2023-05-08T22:13:36.506Z,4.88
2023-05-08T22:16:06.450Z,5.17
2023-05-08T22:18:34.178Z,5.57
2023-05-08T22:21:02.171Z,5.88
2023-05-08T22:23:29.909Z,6.80
2023-05-08T22:25:57.586Z,6.95
2023-05-08T22:28:25.352Z,7.00
2023-05-08T22:30:53.088Z,6.65
2023-05-08T22:33:22.110Z,7.10
2023-05-08T22:35:49.805Z,6.43
2023-05-08T22:38:17.562Z,6.88
2023-05-08T22:40:47.684Z,6.30
2023-05-08T22:43:15.597Z,7.25
2023-05-08T22:45:43.406Z,6.38
2023-05-08T22:48:11.228Z,6.85
2023-05-08T22:50:40.497Z,6.50
2023-05-08T22:53:09.389Z,5.90
2023-05-08T22:55:37.288Z,5.50
2023-05-08T22:58:05.216Z,5.95
2023-05-08T23:00:32.978Z,5.90
2023-05-08T23:03:00.791Z,5.70
2023-05-08T23:05:28.562Z,5.73
2023-05-08T23:07:57.769Z,6.30
2023-05-08T23:10:25.808Z,6.07
2023-05-08T23:12:53.611Z,5.72
2023-05-08T23:15:22.030Z,6.10
2023-05-08T23:17:50.663Z,5.87
2023-05-08T23:20:18.699Z,6.00
2023-05-08T23:22:46.453Z,6.25
2023-05-08T23:25:15.752Z,6.05
2023-05-08T23:27:43.725Z,5.95
2023-05-08T23:30:13.148Z,6.57
2023-05-08T23:32:41.322Z,6.72
2023-05-08T23:35:09.508Z,6.40
2023-05-08T23:37:37.506Z,7.60
2023-05-08T23:40:07.058Z,7.30
2023-05-08T23:42:37.181Z,6.50
2023-05-08T23:45:06.259Z,6.72
2023-05-08T23:47:34.201Z,7.13
2023-05-08T23:50:02.017Z,7.55
2023-05-08T23:52:29.973Z,7.53
2023-05-08T23:54:57.982Z,7.37
2023-05-08T23:57:26.280Z,7.53
2023-05-08T23:59:55.417Z,7.60
